Basrah, Iraq

11:33 AM AST on August 28, 2014 (GMT +0300)
Basrah International | Change Station
CLOSE
Current Station
Airport
Location: Basrah,
Elevation: 7 ft
Nearby Weather Stations

Elev 7 ft 30.52 °N, 47.78 °E | Updated 33 minutes ago

Partly Cloudy
Partly Cloudy
106 °F
Feels Like 104 °F
N
0
Wind Variable Wind from North

Today
High -- | Low -- °F
--% Chance of Precip.
Yesterday
High -- | Low -- °F
Precip. -- in
5:23 AM 6:17 PM
Waxing Crescent, 7% visible
Pressure 29.56 in
Visibility 6.2 miles
Clouds Few 4000 ft
Heat Index 104 °F
Dew Point 54 °F
Humidity 18%
Rainfall 0.00 in
Snow Depth Not available.
UV 10 out of 12
Pollen Not available.
Air Quality Not available.
Flu Activity Not available.
METAR ORMM 280800Z 00000KT 9999 FEW040 41/12 Q1001 NOSIG

More Conditions Fewer Conditions

Pressure 29.56 in
Visibility 6.2 miles
Clouds Few 4000 ft
Heat Index 104 °F
Dew Point 54 °F
Humidity 18%
Rainfall 0.00 in
Snow Depth Not available.
UV 10 out of 12
Pollen Not available.
Air Quality Not available.
Flu Activity Not available.
METAR ORMM 280800Z 00000KT 9999 FEW040 41/12 Q1001 NOSIG

More Conditions Fewer Conditions

10-Day Weather Forecast

Almanac

Astronomy

Aug. 28, 2014 Rise Set
Actual Time 5:23 AM AST 6:17 PM AST
Civil Twilight 4:58 AM AST 6:42 PM AST
Nautical Twilight 4:29 AM AST 7:11 PM AST
Astronomical Twilight 3:59 AM AST 7:40 PM AST
Moon 7:40 AM AST 7:44 PM AST
Length of Visible Light 13h 43m
Length of Day
12h 53m
Tomorrow will be 1m 44s shorter.
Waxing Crescent, 7% of the Moon is Illuminated
Today
Waxing Crescent
Sep 2
First Quarter
Sep 8
Full
Sep 15
Last Quarter
Sep 24
New

Yesterday's Extremes

Country Highs Country Lows

Community

WunderPhotos

Upload Photos

1,747,918 photos uploaded!

Nearby

Snow Depth

Not available.

Earthquake Activity

City Distance Mag. Time & Date
No recent earthquake activity has been reported nearby.
Minimum magnitude displayed is 2.5.

Coastal Water Temperatures

Place Temperature
No Stations Reporting

Nearby Weather Stations